Time;durP1;ratioP1;P1;durP2;ratioP2;P2;SDS_P1;SDS_P2;PMS_P1;PMS_P2;Temp;Humidity;BMP_temperature;BMP_pressure;BME280_temperature;BME280_humidity;BME280_pressure;Samples;Min_cycle;Max_cycle;Signal;HPM_P1;HPM_P2
2023/01/08 00:00:42;;;;;;;6.70;3.97;;;;;;;9.42;100.00;100194.75;4813927;29;20419;-87
2023/01/08 00:03:08;;;;;;;4.87;3.70;;;;;;;9.38;100.00;100196.25;4798357;29;20054;-88
2023/01/08 00:05:33;;;;;;;6.20;3.90;;;;;;;9.38;100.00;100194.34;4811817;29;20487;-88
2023/01/08 00:07:58;;;;;;;5.70;3.73;;;;;;;9.29;100.00;100203.81;4810440;29;20066;-88
2023/01/08 00:10:24;;;;;;;7.77;4.13;;;;;;;9.35;100.00;100204.78;4813508;29;20075;-88
2023/01/08 00:12:49;;;;;;;5.03;4.10;;;;;;;9.31;100.00;100198.19;4813417;29;20111;-88
2023/01/08 00:15:15;;;;;;;5.93;3.70;;;;;;;9.36;100.00;100198.34;4799240;29;20042;-88
2023/01/08 00:17:40;;;;;;;5.80;4.03;;;;;;;9.38;100.00;100209.75;4809592;29;20042;-87
2023/01/08 00:20:06;;;;;;;5.03;3.53;;;;;;;9.38;100.00;100204.34;4808769;29;20041;-87
2023/01/08 00:22:31;;;;;;;7.70;3.90;;;;;;;9.33;100.00;100199.63;4793747;29;20043;-88
2023/01/08 00:24:56;;;;;;;7.67;4.20;;;;;;;9.38;100.00;100193.53;4783658;29;20042;-88
2023/01/08 00:27:22;;;;;;;6.47;4.03;;;;;;;9.35;100.00;100189.41;4798417;29;20121;-88
2023/01/08 00:29:47;;;;;;;7.70;4.60;;;;;;;9.40;100.00;100186.03;4810019;29;20408;-88
2023/01/08 00:32:12;;;;;;;6.00;4.00;;;;;;;9.35;100.00;100177.75;4814368;29;20054;-88
2023/01/08 00:34:38;;;;;;;7.13;4.20;;;;;;;9.34;100.00;100174.22;4804996;29;20481;-88
2023/01/08 00:37:03;;;;;;;6.90;3.93;;;;;;;9.35;100.00;100175.06;4816534;29;20038;-88
2023/01/08 00:39:29;;;;;;;8.73;4.00;;;;;;;9.35;100.00;100172.34;4820053;29;20043;-84
2023/01/08 00:41:54;;;;;;;6.67;4.10;;;;;;;9.35;100.00;100170.47;4827591;29;20390;-85
2023/01/08 00:44:19;;;;;;;6.40;3.80;;;;;;;9.34;100.00;100159.88;4826867;29;20034;-85
2023/01/08 00:46:45;;;;;;;7.40;3.87;;;;;;;9.32;100.00;100151.19;4826874;29;20049;-85
2023/01/08 00:49:10;;;;;;;7.47;4.07;;;;;;;9.32;100.00;100151.19;4812279;29;20122;-85
2023/01/08 00:51:35;;;;;;;7.83;4.10;;;;;;;9.40;100.00;100159.00;4828505;29;20048;-85
2023/01/08 00:54:01;;;;;;;6.77;4.00;;;;;;;9.37;100.00;100152.16;4828329;29;20554;-88
2023/01/08 00:56:26;;;;;;;7.97;3.90;;;;;;;9.39;100.00;100151.94;4827933;29;20491;-88
2023/01/08 00:58:51;;;;;;;8.27;3.80;;;;;;;9.42;100.00;100146.09;4815520;29;20038;-88
2023/01/08 01:01:17;;;;;;;8.60;4.07;;;;;;;9.43;100.00;100147.75;4827670;29;20498;-87
2023/01/08 01:03:43;;;;;;;9.27;4.30;;;;;;;9.44;100.00;100154.81;4831287;29;20041;-87
2023/01/08 01:06:10;;;;;;;10.13;4.53;;;;;;;9.41;100.00;100156.09;4820100;29;20386;-87
2023/01/08 01:08:35;;;;;;;7.17;3.80;;;;;;;9.40;100.00;100151.72;4828169;29;20145;-88
2023/01/08 01:11:09;;;;;;;8.13;4.00;;;;;;;9.43;100.00;100145.03;4827884;29;20049;-88
2023/01/08 01:13:35;;;;;;;7.68;4.07;;;;;;;9.40;100.00;100143.59;4827756;29;20085;-88
2023/01/08 01:16:02;;;;;;;8.23;3.73;;;;;;;9.41;100.00;100139.00;4828424;29;20049;-87
2023/01/08 01:18:27;;;;;;;8.33;4.20;;;;;;;9.40;100.00;100129.25;4830655;29;20031;-87
2023/01/08 01:20:53;;;;;;;7.30;4.33;;;;;;;9.42;100.00;100129.84;4827586;29;20038;-88
2023/01/08 01:23:19;;;;;;;7.37;3.87;;;;;;;9.43;100.00;100131.53;4843141;29;20084;-88
2023/01/08 01:25:44;;;;;;;8.23;4.17;;;;;;;9.42;100.00;100137.97;4827997;29;20042;-88
2023/01/08 01:28:10;;;;;;;7.93;4.00;;;;;;;9.43;100.00;100126.09;4831557;29;20037;-87
2023/01/08 01:30:35;;;;;;;7.93;4.33;;;;;;;9.40;100.00;100131.97;4827057;29;20455;-88
2023/01/08 01:33:01;;;;;;;9.30;3.90;;;;;;;9.44;100.00;100122.38;4822669;29;20058;-88
2023/01/08 01:35:26;;;;;;;7.70;3.70;;;;;;;9.41;100.00;100122.78;4802018;29;20066;-86
2023/01/08 01:37:52;;;;;;;6.37;4.07;;;;;;;9.42;100.00;100110.94;4800081;29;20030;-85
2023/01/08 01:40:17;;;;;;;8.67;4.27;;;;;;;9.40;100.00;100116.56;4800199;29;20487;-85
2023/01/08 01:42:43;;;;;;;9.07;3.80;;;;;;;9.39;100.00;100116.78;4826661;29;20045;-85
2023/01/08 01:45:18;;;;;;;6.37;3.90;;;;;;;9.42;100.00;100124.44;4812166;29;20038;-85
2023/01/08 01:48:09;;;;;;;7.57;4.00;;;;;;;9.44;100.00;100122.38;4827188;29;20033;-85
2023/01/08 01:50:45;;;;;;;7.63;4.00;;;;;;;9.46;100.00;100131.06;4804812;29;20072;-84
2023/01/08 01:53:22;;;;;;;6.57;3.83;;;;;;;9.45;100.00;100129.41;4827767;29;20124;-85
2023/01/08 01:55:48;;;;;;;8.60;3.97;;;;;;;9.54;100.00;100135.38;4827951;29;20093;-85
2023/01/08 01:58:24;;;;;;;6.43;3.43;;;;;;;9.50;100.00;100132.28;4788377;29;20420;-85
2023/01/08 02:00:52;;;;;;;6.40;3.70;;;;;;;9.54;100.00;100144.31;4811392;29;20176;-85
2023/01/08 02:03:21;;;;;;;7.40;3.47;;;;;;;9.44;100.00;100122.38;4803538;29;20090;-88
2023/01/08 02:05:56;;;;;;;6.57;3.63;;;;;;;9.44;100.00;100138.59;4814335;29;20453;-88
2023/01/08 02:08:37;;;;;;;7.87;4.20;;;;;;;9.40;100.00;100126.56;4827171;29;20038;-87
2023/01/08 02:11:11;;;;;;;8.47;3.73;;;;;;;9.36;100.00;100125.34;4828252;29;20038;-88
2023/01/08 02:13:39;;;;;;;8.43;3.37;;;;;;;9.16;100.00;100131.72;4826593;29;20053;-87
2023/01/08 02:16:16;;;;;;;4.17;2.87;;;;;;;9.11;100.00;100123.44;4811815;29;20882;-88
2023/01/08 02:19:20;;;;;;;5.33;2.87;;;;;;;9.13;100.00;100110.56;4804642;29;20032;-87
2023/01/08 02:22:04;;;;;;;7.13;3.57;;;;;;;8.79;100.00;100126.19;4798881;29;20046;-87
2023/01/08 02:24:50;;;;;;;7.80;2.90;;;;;;;8.66;100.00;100110.06;4809872;29;20054;-88
2023/01/08 02:27:17;;;;;;;6.20;3.00;;;;;;;8.48;100.00;100100.81;4827446;29;20069;-88
2023/01/08 02:29:43;;;;;;;7.57;3.20;;;;;;;8.44;100.00;100102.25;4810915;29;20035;-88
2023/01/08 02:32:09;;;;;;;7.13;3.10;;;;;;;8.27;100.00;100112.75;4814251;29;20818;-88
2023/01/08 02:34:34;;;;;;;6.33;3.23;;;;;;;8.15;100.00;100109.88;4827015;29;20050;-88
2023/01/08 02:37:00;;;;;;;6.77;2.97;;;;;;;8.06;100.00;100114.66;4829028;29;20029;-88
2023/01/08 02:39:46;;;;;;;7.80;3.70;;;;;;;8.13;100.00;100117.34;4846438;29;20508;-88
2023/01/08 02:42:27;;;;;;;7.07;3.07;;;;;;;7.98;100.00;100100.59;4844586;29;20044;-85
2023/01/08 02:45:13;;;;;;;5.73;2.40;;;;;;;7.97;100.00;100104.31;4828474;29;20668;-88
2023/01/08 02:47:44;;;;;;;5.20;2.63;;;;;;;7.92;100.00;100113.88;4830050;29;20040;-87
2023/01/08 02:50:18;;;;;;;6.37;2.60;;;;;;;7.85;100.00;100120.38;4829852;29;20052;-88
2023/01/08 02:52:59;;;;;;;5.75;1.98;;;;;;;7.89;100.00;100105.41;4832162;29;20564;-87
2023/01/08 02:55:27;;;;;;;5.13;1.87;;;;;;;7.81;100.00;100111.03;4832487;29;20132;-87
2023/01/08 02:57:52;;;;;;;3.57;1.80;;;;;;;7.80;100.00;100106.69;4832636;29;20037;-88
2023/01/08 03:00:19;;;;;;;4.47;1.97;;;;;;;7.74;100.00;100105.66;4844714;29;20068;-85
2023/01/08 03:02:46;;;;;;;3.10;1.77;;;;;;;7.68;100.00;100095.69;4827535;29;20394;-85
2023/01/08 03:05:23;;;;;;;6.17;2.73;;;;;;;7.55;100.00;100091.19;4832353;29;20036;-85
2023/01/08 03:07:49;;;;;;;8.97;2.27;;;;;;;7.51;100.00;100109.63;4831653;29;20124;-85
2023/01/08 03:10:16;;;;;;;8.40;2.87;;;;;;;7.40;100.00;100103.00;4827938;29;20049;-86
2023/01/08 03:12:56;;;;;;;10.10;3.80;;;;;;;7.41;100.00;100109.22;4826781;29;20041;-87
2023/01/08 03:15:30;;;;;;;10.17;3.53;;;;;;;7.35;100.00;100093.91;4846044;29;20033;-86
2023/01/08 03:17:59;;;;;;;10.43;3.53;;;;;;;7.30;100.00;100097.19;4828188;29;20048;-86
2023/01/08 03:20:25;;;;;;;9.73;3.97;;;;;;;7.24;100.00;100098.88;4839340;29;20574;-89
2023/01/08 03:22:56;;;;;;;11.77;4.33;;;;;;;7.26;100.00;100099.50;4834292;29;21449;-89
2023/01/08 03:25:25;;;;;;;9.30;3.27;;;;;;;7.20;100.00;100097.63;4837542;29;20029;-88
2023/01/08 03:27:56;;;;;;;9.90;3.77;;;;;;;7.22;100.00;100098.28;4834098;29;20127;-88
2023/01/08 03:30:23;;;;;;;12.43;4.00;;;;;;;7.21;100.00;100093.91;4851742;29;20120;-86
2023/01/08 03:32:50;;;;;;;11.67;4.10;;;;;;;7.28;100.00;100102.00;4823261;29;20061;-85
2023/01/08 03:35:19;;;;;;;10.63;4.27;;;;;;;7.26;100.00;100101.34;4831787;29;20022;-85
2023/01/08 03:37:52;;;;;;;10.40;4.30;;;;;;;7.23;100.00;100102.59;4846692;29;20041;-85
2023/01/08 03:40:30;;;;;;;12.53;5.00;;;;;;;7.22;100.00;100092.03;4832401;29;20049;-88
2023/01/08 03:42:56;;;;;;;10.63;4.00;;;;;;;7.26;100.00;100095.97;4837134;29;20029;-88
2023/01/08 03:45:24;;;;;;;8.30;2.10;;;;;;;7.23;100.00;100089.13;4822314;29;20371;-88
2023/01/08 03:47:51;;;;;;;8.17;3.03;;;;;;;7.26;100.00;100087.88;4835090;29;20033;-87
2023/01/08 03:50:21;;;;;;;10.13;2.83;;;;;;;7.27;100.00;100092.25;4824962;29;20037;-88
2023/01/08 03:52:47;;;;;;;8.73;2.83;;;;;;;7.32;100.00;100083.56;4849274;29;20514;-88
2023/01/08 03:55:12;;;;;;;8.97;3.40;;;;;;;7.34;100.00;100086.84;4835108;29;20045;-87
2023/01/08 03:57:38;;;;;;;8.77;2.40;;;;;;;7.31;100.00;100079.19;4832047;29;20116;-87
2023/01/08 04:00:04;;;;;;;9.23;3.20;;;;;;;7.36;100.00;100082.09;4805647;29;20049;-87
2023/01/08 04:02:29;;;;;;;9.93;4.10;;;;;;;7.36;100.00;100084.78;4829757;29;20041;-85
2023/01/08 04:04:54;;;;;;;6.53;2.40;;;;;;;7.37;100.00;100064.84;4837963;29;20041;-85
2023/01/08 04:07:20;;;;;;;11.17;3.30;;;;;;;7.51;100.00;100068.38;4848293;29;20037;-85
2023/01/08 04:09:46;;;;;;;7.70;2.67;;;;;;;7.45;100.00;100061.94;4847867;29;20041;-85
2023/01/08 04:12:11;;;;;;;10.23;3.27;;;;;;;7.49;100.00;100068.56;4807629;29;20045;-85
2023/01/08 04:14:36;;;;;;;7.43;2.00;;;;;;;7.51;100.00;100061.13;4824955;29;20050;-88
2023/01/08 04:17:02;;;;;;;7.63;2.30;;;;;;;7.51;100.00;100082.69;4840879;29;20164;-88
2023/01/08 04:19:27;;;;;;;6.87;2.10;;;;;;;7.51;100.00;100058.41;4816676;29;20619;-87
2023/01/08 04:21:52;;;;;;;9.30;2.17;;;;;;;7.54;100.00;100055.28;4824716;29;20033;-87
2023/01/08 04:24:18;;;;;;;7.13;1.93;;;;;;;7.51;100.00;100046.81;4817044;29;20040;-88
2023/01/08 04:26:44;;;;;;;7.67;1.90;;;;;;;7.56;100.00;100050.53;4813653;29;20594;-88
2023/01/08 04:29:11;;;;;;;5.20;1.80;;;;;;;7.58;100.00;100051.13;4809676;29;20383;-88
2023/01/08 04:31:36;;;;;;;4.87;1.90;;;;;;;7.53;100.00;100047.41;4847062;29;20615;-86
2023/01/08 04:34:02;;;;;;;5.07;1.80;;;;;;;7.56;100.00;100053.22;4832648;29;20045;-85
2023/01/08 04:36:27;;;;;;;6.70;2.00;;;;;;;7.55;100.00;100058.84;4847186;29;20257;-85
2023/01/08 04:38:52;;;;;;;8.10;2.97;;;;;;;7.64;100.00;100059.41;4818801;29;20038;-85
2023/01/08 04:41:18;;;;;;;7.07;2.23;;;;;;;7.59;100.00;100044.72;4807976;29;20073;-86
2023/01/08 04:43:44;;;;;;;7.87;2.70;;;;;;;7.64;100.00;100037.84;4845927;29;20030;-86
2023/01/08 04:46:09;;;;;;;6.93;2.40;;;;;;;7.67;100.00;100037.41;4807079;29;20663;-85
2023/01/08 04:48:35;;;;;;;7.47;2.87;;;;;;;7.66;100.00;100038.47;4822225;29;20030;-85
2023/01/08 04:51:03;;;;;;;5.53;2.70;;;;;;;7.69;100.00;100044.25;4834286;29;20624;-85
2023/01/08 04:53:29;;;;;;;10.67;4.00;;;;;;;7.69;100.00;100040.75;4831098;29;20471;-85
2023/01/08 04:55:54;;;;;;;6.23;2.90;;;;;;;7.68;100.00;100026.41;4830274;29;20033;-86
2023/01/08 04:58:20;;;;;;;6.77;2.80;;;;;;;7.71;100.00;100027.88;4831074;29;20109;-85
2023/01/08 05:00:45;;;;;;;8.40;3.17;;;;;;;7.72;100.00;100041.13;4807019;29;20041;-85
2023/01/08 05:03:11;;;;;;;6.70;3.00;;;;;;;7.72;100.00;100043.00;4821847;29;20938;-86
2023/01/08 05:05:36;;;;;;;8.50;4.07;;;;;;;7.66;100.00;100038.47;4845035;29;20103;-85
2023/01/08 05:08:02;;;;;;;10.00;3.60;;;;;;;7.68;100.00;100039.91;4816976;29;20045;-85
2023/01/08 05:10:27;;;;;;;7.87;3.27;;;;;;;7.66;100.00;100033.09;4831084;29;20125;-85
2023/01/08 05:12:58;;;;;;;9.53;3.30;;;;;;;7.68;100.00;100033.69;4795017;29;20494;-85
2023/01/08 05:15:23;;;;;;;8.30;4.23;;;;;;;7.65;100.00;100024.16;4846355;29;20499;-85
2023/01/08 05:17:57;;;;;;;6.63;3.40;;;;;;;7.69;100.00;100040.75;4821979;29;20033;-85
2023/01/08 05:20:22;;;;;;;11.87;4.60;;;;;;;7.69;100.00;100043.44;4831528;29;20029;-85
2023/01/08 05:22:48;;;;;;;6.73;3.63;;;;;;;7.64;100.00;100027.88;4806234;29;20301;-85
2023/01/08 05:25:13;;;;;;;5.33;2.80;;;;;;;7.67;100.00;100032.03;4815575;29;20037;-85
2023/01/08 05:27:38;;;;;;;8.83;3.80;;;;;;;7.63;100.00;100020.84;4821590;29;20037;-85
2023/01/08 05:30:04;;;;;;;6.33;3.00;;;;;;;7.67;100.00;100034.72;4820931;29;20029;-85
2023/01/08 05:32:30;;;;;;;6.93;3.00;;;;;;;7.64;100.00;100024.38;4795053;29;20068;-85
2023/01/08 05:34:55;;;;;;;3.97;2.10;;;;;;;7.68;100.00;100028.28;4834029;29;20394;-85
2023/01/08 05:37:20;;;;;;;6.23;2.70;;;;;;;7.66;100.00;100016.91;4812971;29;20057;-85
2023/01/08 05:39:46;;;;;;;5.60;2.30;;;;;;;7.69;100.00;100019.16;4822159;29;20041;-85
2023/01/08 05:42:11;;;;;;;5.50;2.03;;;;;;;7.63;100.00;100011.91;4830618;29;20124;-85
2023/01/08 05:44:37;;;;;;;4.17;1.60;;;;;;;7.67;100.00;99999.66;4844389;29;20048;-85
2023/01/08 05:47:02;;;;;;;3.47;1.80;;;;;;;7.63;100.00;100001.13;4833755;29;20070;-85
2023/01/08 05:49:27;;;;;;;7.13;2.43;;;;;;;7.64;100.00;100011.69;4820891;29;20037;-85
2023/01/08 05:51:53;;;;;;;6.03;2.70;;;;;;;7.65;100.00;100017.94;4832038;29;20375;-85
2023/01/08 05:54:18;;;;;;;9.87;4.27;;;;;;;7.66;100.00;100015.03;4830804;29;20042;-85
2023/01/08 05:56:43;;;;;;;5.70;2.57;;;;;;;7.69;100.00;100016.47;4829302;29;20462;-85
2023/01/08 05:59:12;;;;;;;5.97;2.67;;;;;;;7.64;100.00;100022.50;4844673;29;20044;-85
2023/01/08 06:01:38;;;;;;;7.63;3.47;;;;;;;7.54;100.00;100022.94;4846842;29;20033;-85
2023/01/08 06:04:03;;;;;;;11.80;3.77;;;;;;;7.53;100.00;100021.28;4805780;29;20041;-85
2023/01/08 06:06:29;;;;;;;6.87;3.00;;;;;;;7.46;100.00;100022.34;4816812;29;20041;-84
2023/01/08 06:08:54;;;;;;;8.10;3.10;;;;;;;7.51;100.00;100023.38;4806169;29;20086;-85
2023/01/08 06:11:20;;;;;;;8.07;3.20;;;;;;;7.43;100.00;100020.91;4799232;29;20493;-85
2023/01/08 06:13:45;;;;;;;8.07;3.00;;;;;;;7.40;100.00;100015.94;4836230;29;20033;-85
2023/01/08 06:16:11;;;;;;;11.00;3.40;;;;;;;7.38;100.00;100036.88;4814721;29;20047;-88
2023/01/08 06:18:36;;;;;;;9.90;3.17;;;;;;;7.33;100.00;100042.06;4831917;29;20049;-88
2023/01/08 06:21:03;;;;;;;9.17;2.77;;;;;;;7.33;100.00;100048.31;4829918;29;20378;-88
2023/01/08 06:23:29;;;;;;;7.07;2.67;;;;;;;7.26;100.00;100044.78;4846700;29;20914;-88
2023/01/08 06:25:57;;;;;;;8.63;3.53;;;;;;;7.18;100.00;100048.53;4818016;29;20133;-85
2023/01/08 06:28:23;;;;;;;11.80;4.20;;;;;;;7.10;100.00;100048.75;4820897;29;20041;-85
2023/01/08 06:30:48;;;;;;;12.17;4.57;;;;;;;7.10;100.00;100054.94;4828376;29;20049;-85
2023/01/08 06:33:14;;;;;;;10.67;3.83;;;;;;;7.15;100.00;100066.97;4829886;29;20065;-85
2023/01/08 06:35:40;;;;;;;11.20;4.03;;;;;;;7.04;100.00;100057.66;4845363;29;20029;-85
2023/01/08 06:38:05;;;;;;;12.63;4.07;;;;;;;6.97;100.00;100064.91;4845344;29;20368;-85
2023/01/08 06:40:31;;;;;;;13.57;4.83;;;;;;;6.95;100.00;100061.59;4845719;29;20041;-88
2023/01/08 06:43:04;;;;;;;13.10;3.90;;;;;;;6.89;100.00;100077.53;4813014;29;20128;-88
2023/01/08 06:45:30;;;;;;;10.80;3.73;;;;;;;6.85;100.00;100056.59;4832980;29;20026;-88
2023/01/08 06:48:00;;;;;;;10.37;3.67;;;;;;;6.83;100.00;100064.09;4837135;29;20209;-88
2023/01/08 06:50:26;;;;;;;9.17;3.10;;;;;;;6.82;100.00;100068.63;4843594;29;20038;-88
2023/01/08 06:52:53;;;;;;;9.20;3.07;;;;;;;6.72;100.00;100073.59;4832513;29;20033;-88
2023/01/08 06:55:19;;;;;;;10.67;2.90;;;;;;;6.70;100.00;100064.88;4820785;29;20161;-88
2023/01/08 06:57:44;;;;;;;10.40;3.10;;;;;;;6.80;100.00;100059.09;4791240;29;20125;-87
2023/01/08 07:00:10;;;;;;;9.83;3.03;;;;;;;6.75;100.00;100057.03;4832225;29;20061;-85
2023/01/08 07:02:36;;;;;;;7.63;2.37;;;;;;;6.69;100.00;100063.22;4845629;29;20032;-85
2023/01/08 07:05:01;;;;;;;9.07;2.47;;;;;;;6.66;100.00;100063.63;4842002;29;20059;-85
2023/01/08 07:07:26;;;;;;;10.00;3.07;;;;;;;6.65;100.00;100064.66;4844906;29;20402;-85
2023/01/08 07:09:52;;;;;;;11.23;3.20;;;;;;;6.64;100.00;100065.72;4813339;29;20047;-85
2023/01/08 07:12:17;;;;;;;9.33;2.80;;;;;;;6.60;100.00;100065.28;4831570;29;20665;-85
2023/01/08 07:14:42;;;;;;;10.70;2.90;;;;;;;6.61;100.00;100058.03;4844800;29;20029;-85
2023/01/08 07:17:08;;;;;;;12.70;3.47;;;;;;;6.55;100.00;100059.69;4828058;29;20029;-85
2023/01/08 07:19:33;;;;;;;10.57;2.77;;;;;;;6.53;100.00;100056.38;4827179;29;20077;-85
2023/01/08 07:21:59;;;;;;;8.83;2.50;;;;;;;6.59;100.00;100042.09;4829352;29;20410;-85
2023/01/08 07:24:26;;;;;;;10.57;2.90;;;;;;;6.69;100.00;100039.00;4828832;29;20037;-85
2023/01/08 07:26:52;;;;;;;11.83;2.97;;;;;;;6.67;100.00;100038.38;4829359;29;20041;-87
2023/01/08 07:29:17;;;;;;;11.57;3.33;;;;;;;6.67;100.00;100043.78;4829596;29;20036;-88
2023/01/08 07:31:43;;;;;;;13.80;3.10;;;;;;;6.63;100.00;100047.91;4820732;29;20105;-88
2023/01/08 07:34:08;;;;;;;13.00;3.03;;;;;;;6.63;100.00;100039.84;4832359;29;20042;-88
2023/01/08 07:36:33;;;;;;;9.10;2.60;;;;;;;6.62;100.00;100044.38;4796059;29;20129;-88
2023/01/08 07:38:59;;;;;;;9.70;2.90;;;;;;;6.63;100.00;100047.91;4856040;29;20683;-88
2023/01/08 07:41:25;;;;;;;10.07;2.70;;;;;;;6.54;100.00;100049.94;4820593;29;20856;-88
2023/01/08 07:43:50;;;;;;;10.00;2.73;;;;;;;6.53;100.00;100056.38;4828689;29;20733;-88
2023/01/08 07:46:16;;;;;;;8.47;2.47;;;;;;;6.44;100.00;100050.34;4813625;29;20049;-88
2023/01/08 07:48:41;;;;;;;7.53;2.40;;;;;;;6.40;100.00;100049.09;4833773;29;20142;-88
2023/01/08 07:51:07;;;;;;;11.40;2.40;;;;;;;6.39;100.00;100052.81;4805056;29;20044;-88
2023/01/08 07:53:34;;;;;;;10.57;2.57;;;;;;;6.31;100.00;100053.84;4844206;29;20041;-85
2023/01/08 07:56:00;;;;;;;10.87;2.77;;;;;;;6.37;100.00;100054.91;4790299;29;20087;-85
2023/01/08 07:58:26;;;;;;;10.23;2.70;;;;;;;6.28;100.00;100053.44;4851594;29;20033;-85
2023/01/08 08:00:52;;;;;;;7.83;2.60;;;;;;;6.29;100.00;100049.72;4857845;29;20049;-88
2023/01/08 08:03:17;;;;;;;7.03;2.27;;;;;;;6.22;100.00;100055.06;4814282;29;20113;-88
2023/01/08 08:05:43;;;;;;;9.03;2.33;;;;;;;6.19;100.00;100053.59;4854005;29;20029;-88
2023/01/08 08:08:10;;;;;;;7.70;2.37;;;;;;;6.18;100.00;100051.94;4842973;29;20029;-88
2023/01/08 08:10:35;;;;;;;11.47;2.53;;;;;;;6.20;100.00;100049.91;4849772;29;20025;-88
2023/01/08 08:13:02;;;;;;;8.73;2.50;;;;;;;6.24;100.00;100047.59;4854075;29;20029;-88
2023/01/08 08:15:27;;;;;;;10.10;2.43;;;;;;;6.20;100.00;100041.81;4824333;29;20064;-89
2023/01/08 08:17:52;;;;;;;8.97;2.43;;;;;;;6.29;100.00;100028.19;4818187;29;20490;-89
2023/01/08 08:20:18;;;;;;;8.53;2.60;;;;;;;6.32;100.00;100036.66;4843033;29;20155;-88
2023/01/08 08:22:43;;;;;;;7.60;2.10;;;;;;;6.34;100.00;100023.03;4809391;29;20783;-85
2023/01/08 08:25:09;;;;;;;12.97;2.60;;;;;;;6.42;100.00;100014.75;4841853;29;20090;-85
2023/01/08 08:27:34;;;;;;;12.93;3.03;;;;;;;6.44;100.00;100017.25;4847751;29;20435;-85
2023/01/08 08:30:00;;;;;;;10.00;2.97;;;;;;;6.46;100.00;99999.00;4863837;29;20030;-86
2023/01/08 08:32:25;;;;;;;9.17;2.13;;;;;;;6.51;100.00;100012.69;4847375;29;20191;-85
2023/01/08 08:34:51;;;;;;;10.40;2.47;;;;;;;6.51;100.00;99997.34;4865103;29;20040;-86
2023/01/08 08:37:16;;;;;;;10.90;2.50;;;;;;;6.65;100.00;100008.13;4845996;29;20040;-88
2023/01/08 08:39:42;;;;;;;9.67;2.27;;;;;;;6.74;100.00;100014.97;4863323;29;20327;-89
2023/01/08 08:42:07;;;;;;;10.57;2.70;;;;;;;6.86;100.00;100013.31;4831688;29;20030;-88
2023/01/08 08:44:32;;;;;;;8.40;2.67;;;;;;;6.99;100.00;100011.66;4842803;29;20061;-88
2023/01/08 08:46:58;;;;;;;11.63;2.33;;;;;;;7.06;100.00;100015.19;4813322;29;20048;-86
2023/01/08 08:49:23;;;;;;;12.53;3.00;;;;;;;7.15;100.00;100013.09;4822676;29;20891;-86
2023/01/08 08:51:48;;;;;;;12.87;2.80;;;;;;;7.22;100.00;100017.44;4845904;29;20499;-86
2023/01/08 08:54:14;;;;;;;11.90;2.40;;;;;;;7.25;100.00;100019.69;4862271;29;20037;-86
2023/01/08 08:56:39;;;;;;;9.63;2.40;;;;;;;7.26;100.00;99999.81;4848435;29;20033;-86
2023/01/08 08:59:05;;;;;;;7.93;2.60;;;;;;;7.35;100.00;100002.28;4829827;29;20096;-86
2023/01/08 09:01:30;;;;;;;10.67;2.50;;;;;;;7.28;100.00;100001.47;4832326;29;20029;-86
2023/01/08 09:03:56;;;;;;;10.00;2.70;;;;;;;7.31;100.00;100001.84;4803963;29;20116;-85
2023/01/08 09:06:22;;;;;;;12.93;3.10;;;;;;;7.15;100.00;100005.81;4864082;29;20036;-85
2023/01/08 09:08:48;;;;;;;9.10;2.63;;;;;;;7.13;100.00;99999.00;4821720;29;20438;-86
2023/01/08 09:11:13;;;;;;;10.70;2.53;;;;;;;7.09;100.00;100003.97;4845672;29;20188;-86
2023/01/08 09:13:38;;;;;;;9.17;2.80;;;;;;;7.02;100.00;100005.88;4820842;29;20064;-85
2023/01/08 09:16:04;;;;;;;8.70;2.73;;;;;;;6.98;100.00;100013.53;4847068;29;20033;-85
2023/01/08 09:18:29;;;;;;;9.27;2.50;;;;;;;6.95;100.00;100007.72;4807039;29;20120;-88
2023/01/08 09:20:55;;;;;;;8.50;2.70;;;;;;;6.82;100.00;100011.25;4826492;29;20056;-88
2023/01/08 09:23:20;;;;;;;11.83;3.40;;;;;;;6.81;100.00;100007.72;4825481;29;20037;-88
2023/01/08 09:25:45;;;;;;;10.27;2.83;;;;;;;6.72;100.00;100009.00;4833299;29;20505;-88
2023/01/08 09:28:11;;;;;;;10.10;2.80;;;;;;;6.73;100.00;100005.25;4812090;29;20093;-88
2023/01/08 09:30:38;;;;;;;9.53;2.50;;;;;;;6.72;100.00;100009.00;4831279;29;20513;-88
2023/01/08 09:33:04;;;;;;;7.93;2.80;;;;;;;6.67;100.00;100012.28;4826305;29;20054;-88
2023/01/08 09:35:31;;;;;;;7.23;2.60;;;;;;;6.69;100.00;100017.47;4851022;29;20598;-88
2023/01/08 09:37:57;;;;;;;9.33;2.67;;;;;;;6.63;100.00;99996.75;4825692;29;20116;-88
2023/01/08 09:40:41;;;;;;;9.03;2.73;;;;;;;6.62;100.00;100003.19;4845945;29;20033;-88
2023/01/08 09:43:13;;;;;;;9.70;2.80;;;;;;;6.63;100.00;100000.28;4850622;29;20112;-89
2023/01/08 09:45:39;;;;;;;14.20;3.47;;;;;;;6.59;100.00;99993.66;4852961;29;20033;-88
2023/01/08 09:48:11;;;;;;;11.47;3.27;;;;;;;6.55;100.00;99992.41;4813128;29;20521;-88
2023/01/08 09:50:37;;;;;;;10.87;2.90;;;;;;;6.50;100.00;99984.97;4836699;29;20044;-88
2023/01/08 09:53:02;;;;;;;13.67;3.40;;;;;;;6.52;100.00;99988.25;4867638;29;20474;-88
2023/01/08 09:55:32;;;;;;;12.70;3.50;;;;;;;6.51;100.00;99983.09;4867532;29;20081;-88
2023/01/08 09:57:59;;;;;;;11.47;3.40;;;;;;;6.57;100.00;99990.34;4842676;29;20063;-88
2023/01/08 10:00:30;;;;;;;10.50;2.73;;;;;;;6.56;100.00;99984.13;4845865;29;20490;-88
2023/01/08 10:02:57;;;;;;;12.73;3.07;;;;;;;6.57;100.00;99982.28;4846523;29;20034;-88
2023/01/08 10:05:24;;;;;;;12.63;2.87;;;;;;;6.58;100.00;99987.44;4824162;29;20030;-88
2023/01/08 10:07:49;;;;;;;13.60;3.67;;;;;;;6.61;100.00;99978.13;4870980;29;20068;-88
2023/01/08 10:10:26;;;;;;;10.23;3.20;;;;;;;6.62;100.00;99971.69;4828047;29;20125;-88
2023/01/08 10:12:53;;;;;;;11.10;3.07;;;;;;;6.63;100.00;99969.84;4838318;29;20203;-88
2023/01/08 10:15:21;;;;;;;13.63;3.57;;;;;;;6.66;100.00;99966.72;4814956;29;20542;-88
2023/01/08 10:18:09;;;;;;;13.13;3.00;;;;;;;6.71;100.00;99965.06;4835152;29;20041;-88
2023/01/08 10:20:36;;;;;;;11.33;3.30;;;;;;;6.77;100.00;99952.63;4842034;29;20500;-88
2023/01/08 10:23:16;;;;;;;9.73;2.80;;;;;;;6.84;100.00;99956.16;4847558;29;20562;-88
2023/01/08 10:25:53;;;;;;;10.67;2.90;;;;;;;6.89;100.00;99953.66;4846917;29;20062;-89
2023/01/08 10:28:21;;;;;;;13.00;3.20;;;;;;;6.98;100.00;99948.88;4866729;29;20085;-89
2023/01/08 10:30:47;;;;;;;9.83;3.43;;;;;;;7.00;100.00;99940.59;4844539;29;20037;-88
2023/01/08 10:33:42;;;;;;;9.53;2.60;;;;;;;7.16;100.00;99948.22;4863235;29;20608;-89
2023/01/08 10:36:10;;;;;;;10.25;2.85;;;;;;;7.22;100.00;99939.31;4847111;29;20414;-88
2023/01/08 10:38:41;;;;;;;12.23;2.97;;;;;;;7.29;100.00;99941.13;4840082;29;20060;-88
2023/01/08 10:41:12;;;;;;;9.33;2.47;;;;;;;7.33;100.00;99936.97;4841745;29;20462;-88
2023/01/08 10:43:55;;;;;;;7.00;2.53;;;;;;;7.42;100.00;99935.69;4864474;29;20039;-89
2023/01/08 10:46:40;;;;;;;5.47;2.13;;;;;;;7.65;100.00;99935.19;4846256;29;20085;-89
2023/01/08 10:49:32;;;;;;;5.93;2.20;;;;;;;7.91;100.00;99925.28;4844192;29;20054;-89
2023/01/08 10:51:59;;;;;;;6.40;2.30;;;;;;;8.38;100.00;99930.38;4846252;29;20153;-89
2023/01/08 10:54:32;;;;;;;4.83;1.80;;;;;;;8.78;100.00;99920.09;4835833;29;20041;-89
2023/01/08 10:56:58;;;;;;;6.22;1.90;;;;;;;9.04;98.61;99918.13;4851693;29;20092;-89
2023/01/08 10:59:24;;;;;;;4.70;1.80;;;;;;;9.18;98.57;99901.78;4842381;29;20124;-89
2023/01/08 11:01:54;;;;;;;5.00;1.80;;;;;;;9.15;95.84;99911.16;4834498;29;20018;-89
2023/01/08 11:04:31;;;;;;;3.77;1.47;;;;;;;9.33;94.26;99910.34;4832038;29;20500;-89
2023/01/08 11:07:02;;;;;;;3.33;1.70;;;;;;;9.41;92.81;99904.63;4833815;29;20026;-88
2023/01/08 11:09:37;;;;;;;2.73;1.37;;;;;;;9.66;90.57;99898.28;4846589;29;20306;-89
2023/01/08 11:12:03;;;;;;;6.22;1.95;;;;;;;10.00;90.93;99903.22;4830963;29;20034;-88
2023/01/08 11:14:33;;;;;;;5.80;1.90;;;;;;;10.10;88.11;99898.06;4828412;29;20036;-88
2023/01/08 11:17:01;;;;;;;3.50;1.80;;;;;;;10.29;86.53;99886.09;4846132;29;20033;-88
2023/01/08 11:19:32;;;;;;;2.37;1.60;;;;;;;10.37;85.46;99900.38;4828434;29;20068;-88
2023/01/08 11:22:00;;;;;;;2.90;1.23;;;;;;;10.71;85.52;99906.03;4827644;29;20033;-89
2023/01/08 11:24:35;;;;;;;3.07;1.17;;;;;;;10.81;83.61;99881.88;4847162;29;20043;-88
2023/01/08 11:27:29;;;;;;;3.43;1.50;;;;;;;11.14;82.53;99881.25;4828657;29;20095;-88